Time;durP1;ratioP1;P1;durP2;ratioP2;P2;SDS_P1;SDS_P2;PMS_P1;PMS_P2;Temp;Humidity;BMP_temperature;BMP_pressure;BME280_temperature;BME280_humidity;BME280_pressure;Samples;Min_cycle;Max_cycle;Signal;HPM_P1;HPM_P2
2024/01/03 00:00:28;;;;;;;7.60;6.90;;;;;;;4.04;100.00;95990.07;106325;1269;22548;-75
2024/01/03 00:03:19;;;;;;;7.20;6.50;;;;;;;4.03;100.00;95980.69;106391;1274;25394;-76
2024/01/03 00:05:47;;;;;;;7.40;6.50;;;;;;;4.08;100.00;95977.92;106629;1283;22600;-77
2024/01/03 00:08:23;;;;;;;8.70;5.80;;;;;;;4.13;100.00;95970.24;106492;1270;22977;-77
2024/01/03 00:10:57;;;;;;;6.90;6.20;;;;;;;4.15;100.00;95963.36;106243;1283;24062;-77
2024/01/03 00:13:34;;;;;;;8.50;7.50;;;;;;;4.20;100.00;95961.01;106259;1271;22841;-76
2024/01/03 00:16:03;;;;;;;7.60;6.80;;;;;;;4.21;100.00;95954.43;106371;1275;23978;-75
2024/01/03 00:18:39;;;;;;;10.00;8.90;;;;;;;4.19;100.00;95954.51;106392;1283;22586;-75
2024/01/03 00:21:10;;;;;;;9.50;8.60;;;;;;;4.19;100.00;95949.15;106272;1280;22705;-75
2024/01/03 00:23:46;;;;;;;9.40;8.50;;;;;;;4.19;100.00;95951.44;106289;1268;22555;-76
2024/01/03 00:26:14;;;;;;;6.60;5.50;;;;;;;4.20;100.00;95948.20;106286;1273;22542;-75
2024/01/03 00:28:43;;;;;;;6.30;5.60;;;;;;;4.20;100.00;95944.85;106234;1283;22544;-75
2024/01/03 00:31:38;;;;;;;5.50;4.90;;;;;;;4.21;100.00;95939.91;106324;1277;24297;-75
2024/01/03 00:34:22;;;;;;;6.40;5.70;;;;;;;4.22;100.00;95939.56;106277;1271;25267;-74
2024/01/03 00:36:53;;;;;;;6.10;5.50;;;;;;;4.21;100.00;95937.15;106260;1277;22701;-74
2024/01/03 00:39:32;;;;;;;5.20;4.70;;;;;;;4.18;100.00;95935.41;106454;1282;25452;-74
2024/01/03 00:42:00;;;;;;;6.40;5.70;;;;;;;4.18;100.00;95937.55;106260;1277;22655;-75
2024/01/03 00:44:28;;;;;;;5.40;4.90;;;;;;;4.20;100.00;95930.18;106245;1271;25424;-75
2024/01/03 00:46:57;;;;;;;5.70;4.90;;;;;;;4.21;100.00;95926.95;106205;1271;22554;-76
2024/01/03 00:49:25;;;;;;;5.70;5.00;;;;;;;4.23;100.00;95923.00;106172;1282;25329;-76
2024/01/03 00:51:54;;;;;;;6.60;4.90;;;;;;;4.26;100.00;95923.03;106204;1273;22541;-76
2024/01/03 00:54:24;;;;;;;5.80;5.20;;;;;;;4.29;100.00;95915.30;106313;1273;24301;-76
2024/01/03 00:56:53;;;;;;;5.10;4.60;;;;;;;4.32;100.00;95913.30;106204;1268;23414;-76
2024/01/03 00:59:21;;;;;;;4.80;4.30;;;;;;;4.32;100.00;95911.70;106164;1278;22622;-77
2024/01/03 01:01:50;;;;;;;5.20;4.70;;;;;;;4.29;100.00;95903.34;106201;1269;25353;-77
2024/01/03 01:04:19;;;;;;;6.00;5.50;;;;;;;4.29;100.00;95898.55;106258;1276;22541;-76
2024/01/03 01:06:47;;;;;;;7.20;6.50;;;;;;;4.28;100.00;95894.75;106269;1277;22553;-77
2024/01/03 01:09:15;;;;;;;7.40;6.70;;;;;;;4.28;100.00;95889.73;106279;1283;25442;-76
2024/01/03 01:11:43;;;;;;;5.70;5.20;;;;;;;4.31;100.00;95884.38;106619;1283;22674;-76
2024/01/03 01:14:12;;;;;;;5.00;4.40;;;;;;;4.32;100.00;95877.92;106266;1273;22547;-76
2024/01/03 01:16:40;;;;;;;4.90;6.00;;;;;;;4.36;100.00;95878.63;106269;1273;24277;-75
2024/01/03 01:19:07;;;;;;;5.10;4.60;;;;;;;4.39;100.00;95875.16;106282;1280;24059;-76
2024/01/03 01:21:40;;;;;;;5.60;4.50;;;;;;;4.40;100.00;95871.86;106592;1274;25515;-75
2024/01/03 01:24:07;;;;;;;5.20;4.70;;;;;;;4.42;100.00;95866.95;106237;1269;22543;-76
2024/01/03 01:26:36;;;;;;;6.00;5.50;;;;;;;4.44;100.00;95862.73;106184;1260;24448;-76
2024/01/03 01:29:04;;;;;;;8.20;7.50;;;;;;;4.43;100.00;95861.36;106540;1273;24405;-77
2024/01/03 01:31:32;;;;;;;6.80;6.20;;;;;;;4.43;100.00;95855.55;106148;1283;22579;-77
2024/01/03 01:34:00;;;;;;;5.00;4.40;;;;;;;4.42;100.00;95853.62;106152;1283;22539;-79
2024/01/03 01:36:28;;;;;;;5.00;4.50;;;;;;;4.43;100.00;95848.69;106652;1273;25334;-78
2024/01/03 01:38:56;;;;;;;5.00;4.50;;;;;;;4.45;100.00;95844.79;106618;1282;24418;-78
2024/01/03 01:41:24;;;;;;;4.50;4.00;;;;;;;4.47;100.00;95845.21;106627;1277;24248;-78
2024/01/03 01:43:53;;;;;;;5.10;4.40;;;;;;;4.48;100.00;95844.44;106693;1277;22556;-78
2024/01/03 01:46:22;;;;;;;5.00;4.50;;;;;;;4.51;100.00;95838.20;106631;1273;22639;-76
2024/01/03 01:48:50;;;;;;;7.10;6.50;;;;;;;4.54;100.00;95832.21;106638;1277;22559;-77
2024/01/03 01:51:19;;;;;;;8.10;7.30;;;;;;;4.52;100.00;95827.80;106570;1275;25510;-77
2024/01/03 01:53:49;;;;;;;7.70;7.10;;;;;;;4.53;100.00;95823.34;107107;1277;24237;-78
2024/01/03 01:56:19;;;;;;;6.50;5.90;;;;;;;4.51;100.00;95817.47;106324;1280;24216;-77
2024/01/03 01:58:48;;;;;;;6.10;5.50;;;;;;;4.53;100.00;95816.09;106345;1261;23957;-77
2024/01/03 02:01:17;;;;;;;4.80;4.30;;;;;;;4.56;100.00;95815.26;106270;1282;22533;-77
2024/01/03 02:03:48;;;;;;;4.70;4.20;;;;;;;4.58;100.00;95810.06;106487;1278;22549;-78
2024/01/03 02:06:20;;;;;;;4.80;4.20;;;;;;;4.59;100.00;95808.77;106536;1282;22563;-77
2024/01/03 02:08:48;;;;;;;5.90;5.10;;;;;;;4.59;100.00;95807.15;106540;1273;24401;-76
2024/01/03 02:11:16;;;;;;;7.20;6.60;;;;;;;4.61;100.00;95807.60;106195;1283;22544;-77
2024/01/03 02:13:46;;;;;;;4.90;4.40;;;;;;;4.59;100.00;95804.15;106220;1283;22539;-78
2024/01/03 02:16:15;;;;;;;5.20;4.70;;;;;;;4.57;100.00;95799.89;106458;1268;25432;-77
2024/01/03 02:18:44;;;;;;;3.50;3.20;;;;;;;4.54;100.00;95795.50;106572;1275;23285;-77
2024/01/03 02:21:16;;;;;;;4.80;4.10;;;;;;;4.56;100.00;95792.69;106512;1281;24281;-77
2024/01/03 02:23:44;;;;;;;4.30;3.90;;;;;;;4.58;100.00;95791.09;106486;1271;25344;-76
2024/01/03 02:26:13;;;;;;;4.40;3.70;;;;;;;4.61;100.00;95790.16;106218;1280;23168;-76
2024/01/03 02:28:56;;;;;;;5.20;4.00;;;;;;;4.60;100.00;95785.38;106408;1274;25166;-75
2024/01/03 02:31:24;;;;;;;3.90;3.60;;;;;;;4.59;100.00;95777.88;106269;1282;22687;-75
2024/01/03 02:33:52;;;;;;;4.10;3.70;;;;;;;4.58;100.00;95777.52;106293;1283;22571;-74
2024/01/03 02:36:21;;;;;;;3.20;2.90;;;;;;;4.57;100.00;95772.00;106344;1268;22604;-75
2024/01/03 02:38:52;;;;;;;3.60;3.20;;;;;;;4.60;100.00;95772.52;106270;1271;25283;-75
2024/01/03 02:41:21;;;;;;;4.50;2.90;;;;;;;4.62;100.00;95773.59;106266;1274;22646;-75
2024/01/03 02:43:49;;;;;;;3.30;3.00;;;;;;;4.65;100.00;95774.13;106249;1283;22547;-75
2024/01/03 02:46:18;;;;;;;4.10;3.70;;;;;;;4.67;100.00;95774.88;106237;1283;24657;-77
2024/01/03 02:48:46;;;;;;;4.20;3.60;;;;;;;4.67;100.00;95766.81;106247;1280;24224;-77
2024/01/03 02:51:21;;;;;;;3.70;3.40;;;;;;;4.65;100.00;95769.95;106184;1270;22544;-76
2024/01/03 02:53:50;;;;;;;3.80;3.50;;;;;;;4.66;100.00;95773.31;106117;1274;22560;-76
2024/01/03 02:56:19;;;;;;;4.50;3.80;;;;;;;4.67;100.00;95772.32;106174;1281;22632;-76
2024/01/03 02:58:47;;;;;;;4.40;4.00;;;;;;;4.69;100.00;95769.11;106141;1283;25433;-77
2024/01/03 03:01:15;;;;;;;4.80;4.10;;;;;;;4.72;100.00;95769.87;106270;1277;24338;-76
2024/01/03 03:03:43;;;;;;;5.30;4.80;;;;;;;4.74;100.00;95771.31;106353;1273;25365;-76
2024/01/03 03:06:11;;;;;;;4.80;4.30;;;;;;;4.76;100.00;95767.39;106274;1276;25401;-77
2024/01/03 03:08:39;;;;;;;7.00;6.20;;;;;;;4.76;100.00;95772.31;106254;1270;24393;-75
2024/01/03 03:11:07;;;;;;;6.10;5.50;;;;;;;4.75;100.00;95765.81;106274;1278;24408;-77
2024/01/03 03:13:35;;;;;;;6.80;6.10;;;;;;;4.76;100.00;95766.54;106216;1273;24377;-77
2024/01/03 03:16:06;;;;;;;7.70;5.90;;;;;;;4.74;100.00;95760.98;106218;1283;22636;-77
2024/01/03 03:18:34;;;;;;;5.80;5.20;;;;;;;4.76;100.00;95756.35;106250;1283;22537;-76
2024/01/03 03:21:02;;;;;;;6.90;5.80;;;;;;;4.79;100.00;95753.86;106210;1271;25426;-77
2024/01/03 03:23:30;;;;;;;7.00;6.30;;;;;;;4.81;100.00;95751.13;106252;1273;22688;-76
2024/01/03 03:26:00;;;;;;;7.70;7.00;;;;;;;4.80;100.00;95749.03;106616;1276;22864;-77
2024/01/03 03:28:28;;;;;;;7.50;6.80;;;;;;;4.79;100.00;95742.43;106605;1273;22570;-77
2024/01/03 03:30:56;;;;;;;8.10;7.10;;;;;;;4.79;100.00;95744.95;106243;1276;24075;-76
2024/01/03 03:33:24;;;;;;;8.20;7.40;;;;;;;4.82;100.00;95754.67;106285;1280;25297;-78
2024/01/03 03:35:52;;;;;;;6.40;5.70;;;;;;;4.86;100.00;95747.73;106640;1283;23925;-77
2024/01/03 03:38:20;;;;;;;7.30;5.90;;;;;;;4.89;100.00;95738.20;106666;1280;24141;-77
2024/01/03 03:40:48;;;;;;;6.70;5.30;;;;;;;4.92;100.00;95737.60;106641;1283;25344;-78
2024/01/03 03:43:16;;;;;;;6.40;4.80;;;;;;;4.96;100.00;95746.11;106587;1273;22541;-76
2024/01/03 03:45:44;;;;;;;9.20;5.40;;;;;;;5.00;100.00;95748.90;106286;1271;25546;-76
2024/01/03 03:48:12;;;;;;;7.50;4.20;;;;;;;5.04;100.00;95746.16;106280;1283;24265;-77
2024/01/03 03:50:40;;;;;;;8.60;4.50;;;;;;;5.07;100.00;95749.43;106147;1274;22540;-76
2024/01/03 03:53:10;;;;;;;4.40;3.40;;;;;;;5.11;100.00;95742.45;106183;1271;24344;-77
2024/01/03 03:55:42;;;;;;;8.50;4.30;;;;;;;5.14;100.00;95743.27;106248;1270;22560;-77
2024/01/03 03:58:10;;;;;;;7.80;4.80;;;;;;;5.14;100.00;95739.05;106172;1274;23011;-77
2024/01/03 04:00:38;;;;;;;5.70;4.00;;;;;;;5.14;100.00;95739.84;106521;1261;22556;-78
2024/01/03 04:03:08;;;;;;;3.90;3.30;;;;;;;5.14;100.00;95736.58;106590;1274;26560;-80
2024/01/03 04:05:38;;;;;;;6.10;4.10;;;;;;;5.19;100.00;95734.45;106651;1282;22665;-75
2024/01/03 04:08:06;;;;;;;4.90;4.10;;;;;;;5.20;100.00;95738.00;106301;1268;22544;-76
2024/01/03 04:10:35;;;;;;;5.00;4.20;;;;;;;5.20;100.00;95736.03;106278;1264;24056;-76
2024/01/03 04:13:03;;;;;;;5.90;4.60;;;;;;;5.21;100.00;95737.10;106254;1277;24417;-77
2024/01/03 04:15:32;;;;;;;6.50;4.90;;;;;;;5.22;100.00;95733.86;106230;1283;25328;-77
2024/01/03 04:18:04;;;;;;;4.60;4.20;;;;;;;5.23;100.00;95735.02;106611;1281;25381;-76
2024/01/03 04:20:32;;;;;;;5.20;3.90;;;;;;;5.28;100.00;95737.06;106551;1282;22607;-75
2024/01/03 04:23:01;;;;;;;3.90;3.50;;;;;;;5.31;100.00;95734.75;106217;1283;22544;-76
2024/01/03 04:25:29;;;;;;;4.30;3.80;;;;;;;5.35;100.00;95736.28;106189;1283;22546;-75
2024/01/03 04:27:57;;;;;;;5.10;4.40;;;;;;;5.39;100.00;95736.70;106186;1271;24292;-75
2024/01/03 04:30:25;;;;;;;6.80;5.80;;;;;;;5.42;100.00;95734.67;106224;1265;25153;-76
2024/01/03 04:32:53;;;;;;;5.10;4.50;;;;;;;5.46;100.00;95742.70;106133;1274;22543;-77
2024/01/03 04:35:21;;;;;;;7.90;6.50;;;;;;;5.53;100.00;95745.80;106523;1280;22570;-77
2024/01/03 04:37:49;;;;;;;5.10;4.40;;;;;;;5.55;100.00;95740.95;106203;1277;25351;-77
2024/01/03 04:40:17;;;;;;;5.30;4.70;;;;;;;5.58;100.00;95744.96;106219;1272;23027;-77
2024/01/03 04:42:45;;;;;;;4.20;3.80;;;;;;;5.61;100.00;95750.86;106533;1261;22651;-77
2024/01/03 04:45:13;;;;;;;4.30;3.50;;;;;;;5.67;100.00;95753.11;106223;1264;23904;-76
2024/01/03 04:47:40;;;;;;;5.90;4.30;;;;;;;5.74;100.00;95757.81;106249;1282;25387;-77
2024/01/03 04:50:08;;;;;;;9.10;4.90;;;;;;;5.80;100.00;95769.89;106199;1277;25160;-76
2024/01/03 04:52:36;;;;;;;5.70;3.80;;;;;;;5.84;100.00;95764.10;106458;1283;25718;-77
2024/01/03 04:55:05;;;;;;;6.40;4.10;;;;;;;5.85;100.00;95764.15;106262;1282;22553;-78
2024/01/03 04:57:34;;;;;;;4.70;3.80;;;;;;;5.90;100.00;95766.20;106301;1280;22544;-78
2024/01/03 05:00:04;;;;;;;5.40;4.30;;;;;;;5.96;100.00;95769.33;106314;1283;22549;-77
2024/01/03 05:02:33;;;;;;;7.10;4.20;;;;;;;5.97;100.00;95762.96;106399;1283;26707;-77
2024/01/03 05:05:02;;;;;;;7.00;5.30;;;;;;;5.99;100.00;95760.76;106554;1282;26295;-77
2024/01/03 05:07:33;;;;;;;8.60;4.90;;;;;;;5.96;100.00;95759.79;106259;1283;22667;-77
2024/01/03 05:10:02;;;;;;;8.40;5.30;;;;;;;6.00;100.00;95765.23;106211;1283;22547;-77
2024/01/03 05:12:29;;;;;;;10.40;6.10;;;;;;;6.01;100.00;95767.65;106554;1273;24529;-76
2024/01/03 05:14:57;;;;;;;9.00;5.20;;;;;;;6.06;100.00;95763.50;106505;1274;22716;-77
2024/01/03 05:17:27;;;;;;;10.10;5.70;;;;;;;6.10;100.00;95766.25;106280;1278;23042;-77
2024/01/03 05:19:56;;;;;;;8.50;5.20;;;;;;;6.10;100.00;95768.48;106330;1277;23233;-77
2024/01/03 05:22:24;;;;;;;7.80;5.20;;;;;;;6.12;100.00;95770.14;106660;1283;25319;-77
2024/01/03 05:24:54;;;;;;;10.10;6.00;;;;;;;6.14;100.00;95762.73;106574;1273;22559;-77
2024/01/03 05:27:23;;;;;;;6.40;4.90;;;;;;;6.17;100.00;95755.36;106644;1268;22556;-78
2024/01/03 05:29:51;;;;;;;6.20;5.40;;;;;;;6.21;100.00;95752.23;106294;1273;25262;-78
2024/01/03 05:32:19;;;;;;;8.00;5.00;;;;;;;6.24;100.00;95752.75;106243;1277;25504;-77
2024/01/03 05:34:47;;;;;;;6.20;4.50;;;;;;;6.28;100.00;95752.44;106599;1277;23373;-77
2024/01/03 05:37:15;;;;;;;6.10;4.90;;;;;;;6.32;100.00;95755.10;106644;1276;23794;-78
2024/01/03 05:39:45;;;;;;;9.50;5.40;;;;;;;6.34;100.00;95755.80;106513;1283;24233;-77
2024/01/03 05:42:13;;;;;;;9.80;5.00;;;;;;;6.37;100.00;95759.26;106721;1280;22551;-76
2024/01/03 05:44:41;;;;;;;9.30;5.90;;;;;;;6.41;100.00;95757.71;106754;1280;23278;-76
2024/01/03 05:47:09;;;;;;;8.10;5.70;;;;;;;6.41;100.00;95761.38;106714;1282;22795;-77
2024/01/03 05:49:37;;;;;;;7.80;5.60;;;;;;;6.43;100.00;95756.83;106192;1276;22550;-77
2024/01/03 05:52:05;;;;;;;6.70;6.00;;;;;;;6.44;100.00;95763.21;106635;1281;22557;-77
2024/01/03 05:54:33;;;;;;;6.60;5.90;;;;;;;6.49;100.00;95766.02;106570;1273;22589;-77
2024/01/03 05:57:02;;;;;;;6.70;6.00;;;;;;;6.54;100.00;95775.05;106622;1262;26513;-79
2024/01/03 05:59:31;;;;;;;6.80;5.30;;;;;;;6.57;100.00;95775.08;106644;1273;25287;-77
2024/01/03 06:01:59;;;;;;;9.20;7.00;;;;;;;6.59;100.00;95778.70;106597;1272;23272;-77
2024/01/03 06:04:27;;;;;;;7.10;5.90;;;;;;;6.61;100.00;95770.89;106231;1283;22780;-77
2024/01/03 06:06:54;;;;;;;7.00;5.70;;;;;;;6.63;100.00;95777.73;106251;1273;24075;-79
2024/01/03 06:09:24;;;;;;;8.20;5.60;;;;;;;6.62;100.00;95773.98;106185;1282;22970;-78
2024/01/03 06:11:52;;;;;;;6.50;5.20;;;;;;;6.65;100.00;95772.02;106513;1270;22613;-79
2024/01/03 06:14:20;;;;;;;6.00;5.30;;;;;;;6.67;100.00;95782.05;106509;1270;22632;-79
2024/01/03 06:16:48;;;;;;;7.50;5.40;;;;;;;6.70;100.00;95774.25;106511;1281;22663;-79
2024/01/03 06:19:16;;;;;;;7.70;6.30;;;;;;;6.72;100.00;95775.49;106478;1283;25473;-76
2024/01/03 06:21:44;;;;;;;6.30;5.40;;;;;;;6.74;100.00;95776.11;106205;1270;22652;-77
2024/01/03 06:24:12;;;;;;;8.30;6.40;;;;;;;6.78;100.00;95778.17;106235;1283;24399;-77
2024/01/03 06:26:40;;;;;;;8.90;7.00;;;;;;;6.79;100.00;95784.02;106184;1277;25636;-78
2024/01/03 06:29:08;;;;;;;8.20;6.30;;;;;;;6.80;100.00;95784.98;106611;1272;24433;-77
2024/01/03 06:31:36;;;;;;;7.30;5.00;;;;;;;6.85;100.00;95790.19;106538;1282;22609;-77
2024/01/03 06:34:05;;;;;;;8.80;6.00;;;;;;;6.87;100.00;95793.26;106179;1283;22544;-77
2024/01/03 06:36:34;;;;;;;9.20;5.20;;;;;;;6.89;100.00;95795.09;106297;1283;25267;-78
2024/01/03 06:39:02;;;;;;;5.80;4.90;;;;;;;6.92;100.00;95797.98;106238;1277;22640;-76
2024/01/03 06:41:30;;;;;;;8.10;5.30;;;;;;;6.93;100.00;95796.92;106098;1280;25287;-76
2024/01/03 06:43:57;;;;;;;5.90;4.40;;;;;;;6.93;100.00;95795.45;106277;1277;22564;-77
2024/01/03 06:46:27;;;;;;;5.80;4.70;;;;;;;6.94;100.00;95797.38;106574;1274;22555;-76
2024/01/03 06:48:58;;;;;;;9.00;5.50;;;;;;;6.96;100.00;95811.64;106272;1270;25385;-76
2024/01/03 06:51:26;;;;;;;6.60;4.60;;;;;;;6.96;100.00;95810.25;106271;1273;22556;-76
2024/01/03 06:53:54;;;;;;;8.60;5.30;;;;;;;6.99;100.00;95811.30;106271;1270;25398;-76
2024/01/03 06:56:24;;;;;;;6.60;5.30;;;;;;;7.00;100.00;95821.66;106222;1283;22548;-77
2024/01/03 06:58:57;;;;;;;12.50;9.90;;;;;;;6.99;100.00;95813.58;106290;1273;22655;-76
2024/01/03 07:01:26;;;;;;;8.90;6.10;;;;;;;7.02;100.00;95823.10;106398;1282;25443;-77
2024/01/03 07:03:54;;;;;;;8.40;6.10;;;;;;;7.04;100.00;95821.73;106562;1270;25264;-76
2024/01/03 07:06:23;;;;;;;9.70;5.60;;;;;;;7.03;100.00;95819.70;106144;1280;24088;-78
2024/01/03 07:08:53;;;;;;;7.40;6.60;;;;;;;7.01;100.00;95817.79;106362;1273;25400;-77
2024/01/03 07:11:21;;;;;;;6.10;4.60;;;;;;;6.98;100.00;95825.05;106335;1270;24492;-78
2024/01/03 07:13:49;;;;;;;8.30;5.70;;;;;;;6.99;100.00;95819.64;106294;1273;22792;-76
2024/01/03 07:16:18;;;;;;;6.30;5.20;;;;;;;7.02;100.00;95821.20;106290;1277;23501;-76
2024/01/03 07:18:46;;;;;;;7.30;5.00;;;;;;;7.07;100.00;95822.05;106241;1273;23933;-78
2024/01/03 07:21:14;;;;;;;7.50;6.00;;;;;;;7.08;100.00;95824.19;106232;1277;22540;-78
2024/01/03 07:23:42;;;;;;;15.20;10.30;;;;;;;7.09;100.00;95827.75;106295;1283;22560;-77
2024/01/03 07:26:10;;;;;;;8.00;5.40;;;;;;;7.10;100.00;95823.77;106645;1283;24256;-78
2024/01/03 07:28:38;;;;;;;9.90;6.50;;;;;;;7.16;100.00;95825.83;106489;1283;22916;-76
2024/01/03 07:31:07;;;;;;;15.00;8.60;;;;;;;7.19;100.00;95831.16;106204;1285;25820;-80
2024/01/03 07:33:35;;;;;;;13.70;7.70;;;;;;;7.21;100.00;95826.73;106283;1268;22585;-77
2024/01/03 07:36:03;;;;;;;14.70;8.70;;;;;;;7.20;100.00;95832.56;106360;1283;24060;-76
2024/01/03 07:38:34;;;;;;;8.40;6.80;;;;;;;7.22;100.00;95840.68;106374;1277;25453;-76
2024/01/03 07:41:02;;;;;;;8.40;6.30;;;;;;;7.23;100.00;95836.45;106108;1283;23433;-76
2024/01/03 07:43:30;;;;;;;7.40;5.70;;;;;;;7.25;100.00;95839.28;106239;1276;24228;-76
2024/01/03 07:45:58;;;;;;;9.60;6.30;;;;;;;7.27;100.00;95844.02;106219;1260;22795;-77
2024/01/03 07:48:26;;;;;;;10.70;7.40;;;;;;;7.27;100.00;95842.86;106285;1280;24507;-78
2024/01/03 07:50:54;;;;;;;11.50;9.00;;;;;;;7.30;100.00;95844.27;106247;1283;24368;-78
2024/01/03 07:53:22;;;;;;;9.50;8.60;;;;;;;7.31;100.00;95844.43;106540;1268;22777;-78
2024/01/03 07:55:50;;;;;;;8.80;7.80;;;;;;;7.31;100.00;95853.85;106251;1276;22721;-78
2024/01/03 07:58:18;;;;;;;5.60;5.10;;;;;;;7.30;100.00;95849.30;106586;1268;25501;-79
2024/01/03 08:00:46;;;;;;;9.60;8.10;;;;;;;7.29;100.00;95857.69;106571;1270;22649;-79
2024/01/03 08:03:14;;;;;;;8.20;5.70;;;;;;;7.26;100.00;95853.17;106614;1268;22539;-79
2024/01/03 08:05:43;;;;;;;5.80;4.50;;;;;;;7.29;100.00;95857.94;106701;1269;25265;-79
2024/01/03 08:08:11;;;;;;;9.30;6.10;;;;;;;7.33;100.00;95861.73;106588;1270;24379;-77
2024/01/03 08:10:39;;;;;;;7.60;4.60;;;;;;;7.32;100.00;95861.16;106604;1282;22557;-77
2024/01/03 08:13:07;;;;;;;7.30;5.60;;;;;;;7.32;100.00;95865.22;106567;1282;22569;-78
2024/01/03 08:15:35;;;;;;;8.20;5.00;;;;;;;7.34;100.00;95868.90;106604;1283;22596;-78
2024/01/03 08:18:03;;;;;;;10.80;6.10;;;;;;;7.39;100.00;95876.34;106652;1270;22592;-78
2024/01/03 08:20:31;;;;;;;9.90;5.80;;;;;;;7.40;100.00;95877.92;106562;1273;23030;-78
2024/01/03 08:23:00;;;;;;;7.50;4.90;;;;;;;7.42;100.00;95880.44;106604;1280;22584;-78
2024/01/03 08:25:28;;;;;;;7.70;4.80;;;;;;;7.42;100.00;95874.57;106661;1283;22553;-77
2024/01/03 08:27:56;;;;;;;8.80;5.40;;;;;;;7.45;100.00;95884.16;106790;1273;22568;-77
2024/01/03 08:30:24;;;;;;;8.10;4.50;;;;;;;7.47;100.00;95880.61;106672;1283;23890;-77
2024/01/03 08:32:52;;;;;;;8.20;5.40;;;;;;;7.46;100.00;95885.02;107078;1283;22550;-77
2024/01/03 08:35:20;;;;;;;6.90;4.40;;;;;;;7.48;100.00;95871.02;106263;1283;24231;-77
2024/01/03 08:37:48;;;;;;;7.20;5.00;;;;;;;7.50;100.00;95878.52;106341;1279;25367;-78
2024/01/03 08:40:17;;;;;;;8.60;6.30;;;;;;;7.48;100.00;95882.34;106330;1282;22643;-77
2024/01/03 08:42:45;;;;;;;6.10;5.00;;;;;;;7.48;100.00;95882.02;106336;1282;24222;-76
2024/01/03 08:45:13;;;;;;;5.40;4.20;;;;;;;7.49;100.00;95886.59;106314;1282;25076;-77
2024/01/03 08:47:41;;;;;;;8.60;5.60;;;;;;;7.54;100.00;95888.84;106652;1280;22561;-77
2024/01/03 08:50:09;;;;;;;8.30;5.90;;;;;;;7.55;100.00;95888.12;106346;1276;25000;-77
2024/01/03 08:52:37;;;;;;;9.30;6.30;;;;;;;7.55;100.00;95889.27;106579;1270;24308;-77
2024/01/03 08:55:05;;;;;;;7.30;5.50;;;;;;;7.57;100.00;95897.51;106248;1270;24236;-77
2024/01/03 08:57:33;;;;;;;10.00;8.20;;;;;;;7.60;100.00;95895.87;106203;1270;22985;-77
2024/01/03 09:00:01;;;;;;;9.60;7.50;;;;;;;7.62;100.00;95895.39;106267;1268;22603;-78
2024/01/03 09:02:30;;;;;;;10.70;8.00;;;;;;;7.65;100.00;95898.66;106224;1270;22534;-77
2024/01/03 09:04:58;;;;;;;7.00;5.40;;;;;;;7.67;100.00;95908.39;106216;1273;25520;-77
2024/01/03 09:07:26;;;;;;;14.40;12.00;;;;;;;7.71;100.00;95895.81;106231;1282;22554;-77
2024/01/03 09:09:54;;;;;;;9.10;7.40;;;;;;;7.72;100.00;95902.20;106236;1273;22562;-77
2024/01/03 09:12:24;;;;;;;7.70;6.30;;;;;;;7.77;100.00;95907.20;106218;1273;22722;-76
2024/01/03 09:14:52;;;;;;;6.50;5.60;;;;;;;7.79;100.00;95908.48;106263;1260;22543;-77
2024/01/03 09:17:20;;;;;;;7.30;6.00;;;;;;;7.82;100.00;95911.36;106295;1283;22630;-79
2024/01/03 09:19:48;;;;;;;9.10;6.10;;;;;;;7.86;100.00;95914.85;106283;1270;26773;-78
2024/01/03 09:22:16;;;;;;;7.30;5.60;;;;;;;7.91;100.00;95914.27;106270;1283;24228;-77
2024/01/03 09:24:44;;;;;;;7.60;5.50;;;;;;;7.92;100.00;95923.59;106226;1273;24404;-78
2024/01/03 09:27:12;;;;;;;7.30;5.20;;;;;;;7.93;100.00;95922.70;106631;1283;22565;-77
2024/01/03 09:29:41;;;;;;;9.10;5.50;;;;;;;7.96;100.00;95920.97;106278;1277;24282;-76
2024/01/03 09:32:09;;;;;;;5.00;4.30;;;;;;;7.99;100.00;95920.39;106335;1273;22570;-79
2024/01/03 09:34:39;;;;;;;6.60;4.30;;;;;;;8.03;100.00;95923.74;106608;1283;22506;-77
2024/01/03 09:37:07;;;;;;;9.40;5.50;;;;;;;8.04;100.00;95918.73;106395;1273;22560;-77
2024/01/03 09:39:35;;;;;;;7.40;5.70;;;;;;;8.08;100.00;95923.52;106207;1269;24228;-77
2024/01/03 09:42:03;;;;;;;9.00;6.80;;;;;;;8.12;100.00;95922.52;106211;1273;22894;-77
2024/01/03 09:44:33;;;;;;;9.20;5.90;;;;;;;8.17;100.00;95919.42;106152;1273;25453;-77
2024/01/03 09:47:01;;;;;;;10.10;7.70;;;;;;;8.19;100.00;95920.69;106396;1275;25400;-77
2024/01/03 09:49:29;;;;;;;6.70;5.90;;;;;;;8.23;100.00;95918.61;106281;1270;22550;-77
2024/01/03 09:51:58;;;;;;;14.10;12.70;;;;;;;8.30;100.00;95927.65;106379;1271;236982;-77
2024/01/03 09:54:26;;;;;;;10.10;6.70;;;;;;;8.35;100.00;95929.05;106409;1274;24231;-77
2024/01/03 09:56:55;;;;;;;13.40;11.00;;;;;;;8.41;100.00;95931.52;107116;1275;22566;-77
2024/01/03 09:59:23;;;;;;;6.70;5.50;;;;;;;8.47;100.00;95927.18;106685;1273;22554;-76
2024/01/03 10:01:56;;;;;;;5.50;4.30;;;;;;;8.56;100.00;95937.50;106647;1270;24319;-79
2024/01/03 10:04:27;;;;;;;9.00;6.00;;;;;;;8.67;100.00;95933.12;106774;1277;22565;-78
2024/01/03 10:06:57;;;;;;;8.70;6.20;;;;;;;8.75;100.00;95937.38;106706;1270;22541;-79
2024/01/03 10:09:40;;;;;;;5.90;4.60;;;;;;;8.81;100.00;95947.77;106754;1282;22659;-78
2024/01/03 10:12:18;;;;;;;6.20;4.30;;;;;;;8.83;100.00;95946.30;106710;1271;25322;-78
2024/01/03 10:14:47;;;;;;;6.80;4.40;;;;;;;8.86;100.00;95945.71;106348;1283;22557;-78
2024/01/03 10:17:16;;;;;;;7.50;5.10;;;;;;;8.85;100.00;95944.37;106402;1270;22555;-79
2024/01/03 10:19:44;;;;;;;11.50;8.80;;;;;;;8.89;100.00;95944.41;108604;1282;23357;-78
2024/01/03 10:22:18;;;;;;;7.60;4.30;;;;;;;8.92;100.00;95948.04;106714;1283;22544;-78
2024/01/03 10:24:46;;;;;;;8.40;6.10;;;;;;;8.94;100.00;95936.05;106708;1271;24218;-78
2024/01/03 10:27:15;;;;;;;9.10;6.40;;;;;;;8.93;100.00;95932.42;106755;1283;25495;-77
2024/01/03 10:29:43;;;;;;;9.00;6.10;;;;;;;8.92;100.00;95935.16;106702;1273;22617;-76
2024/01/03 10:32:18;;;;;;;6.40;5.00;;;;;;;8.91;100.00;95929.73;106272;1283;24326;-77
2024/01/03 10:34:46;;;;;;;6.20;5.40;;;;;;;8.92;100.00;95932.78;106306;1270;24369;-77
2024/01/03 10:37:14;;;;;;;5.70;4.40;;;;;;;8.92;100.00;95927.57;107145;1283;22545;-77
2024/01/03 10:39:45;;;;;;;7.40;5.60;;;;;;;8.90;100.00;95925.25;106534;1280;22687;-80
2024/01/03 10:42:12;;;;;;;8.40;5.40;;;;;;;8.87;100.00;95928.48;106682;1283;25583;-80
2024/01/03 10:44:43;;;;;;;7.60;5.50;;;;;;;8.88;100.00;95934.63;106719;1259;25538;-76
2024/01/03 10:47:11;;;;;;;6.10;4.00;;;;;;;8.90;99.98;95941.84;106379;1277;25397;-78
2024/01/03 10:49:43;;;;;;;7.60;4.70;;;;;;;8.92;99.85;95936.16;106292;1283;22550;-77
2024/01/03 10:52:12;;;;;;;7.50;4.70;;;;;;;8.90;99.93;95928.34;106374;1283;22630;-77
2024/01/03 10:54:44;;;;;;;5.30;3.80;;;;;;;8.92;99.86;95925.23;107087;1280;22554;-77
2024/01/03 10:57:17;;;;;;;6.80;4.70;;;;;;;8.94;99.88;95927.64;106459;1283;22682;-76
2024/01/03 11:00:01;;;;;;;5.40;4.20;;;;;;;8.98;99.40;95932.64;106384;1273;22683;-77
2024/01/03 11:02:37;;;;;;;4.20;3.20;;;;;;;9.04;98.81;95930.78;106176;1268;24390;-77
2024/01/03 11:05:15;;;;;;;9.30;5.80;;;;;;;9.07;98.55;95928.02;106722;1276;23647;-77
2024/01/03 11:07:50;;;;;;;5.80;4.40;;;;;;;9.09;99.12;95929.86;106786;1276;22668;-77
2024/01/03 11:10:48;;;;;;;4.90;3.40;;;;;;;9.09;98.13;95943.75;106283;1270;22554;-76
2024/01/03 11:13:31;;;;;;;5.10;4.00;;;;;;;9.09;97.74;95930.55;106345;1280;22560;-76
2024/01/03 11:16:00;;;;;;;9.10;4.70;;;;;;;9.12;97.90;95927.47;106727;1273;25443;-77
2024/01/03 11:18:44;;;;;;;7.90;5.30;;;;;;;9.12;98.41;95928.79;106345;1273;22638;-77
2024/01/03 11:21:23;;;;;;;6.30;4.40;;;;;;;9.12;97.48;95927.71;106288;1283;23854;-76
2024/01/03 11:23:53;;;;;;;5.90;4.30;;;;;;;9.12;96.26;95922.39;106286;1268;25242;-76
2024/01/03 11:26:52;;;;;;;9.30;8.10;;;;;;;9.15;96.78;95919.58;106272;1270;25623;-78
2024/01/03 11:29:42;;;;;;;7.80;6.10;;;;;;;9.31;96.42;95920.14;106408;1272;24259;-78
2024/01/03 11:32:34;;;;;;;14.70;13.10;;;;;;;9.58;95.04;95923.79;106753;1283;24239;-78
2024/01/03 11:35:08;;;;;;;10.80;8.30;;;;;;;9.99;94.11;95924.16;106830;1261;22550;-80